createdAt,value
2019-02-07T00:00:21.222Z,7.85
2019-02-07T00:01:21.201Z,7.83
2019-02-07T00:02:21.172Z,7.88
2019-02-07T00:03:21.148Z,7.88
2019-02-07T00:04:21.126Z,7.85
2019-02-07T00:05:21.135Z,7.81
2019-02-07T00:06:21.073Z,7.83
2019-02-07T00:07:21.047Z,7.81
2019-02-07T00:08:21.021Z,7.85
2019-02-07T00:09:21.000Z,7.81
2019-02-07T00:10:21.051Z,7.87
2019-02-07T00:11:20.945Z,7.84
2019-02-07T00:12:20.923Z,7.83
2019-02-07T00:13:20.894Z,7.84
2019-02-07T00:14:20.872Z,7.90
2019-02-07T00:15:20.844Z,7.81
2019-02-07T00:16:20.819Z,7.84
2019-02-07T00:17:20.793Z,7.81
2019-02-07T00:18:20.768Z,7.80
2019-02-07T00:19:20.742Z,7.80
2019-02-07T00:20:20.717Z,7.81
2019-02-07T00:21:20.693Z,7.80
2019-02-07T00:22:20.728Z,7.75
2019-02-07T00:23:20.642Z,7.80
2019-02-07T00:24:20.617Z,7.80
2019-02-07T00:25:20.592Z,7.85
2019-02-07T00:26:20.567Z,7.78
2019-02-07T00:27:20.548Z,7.75
2019-02-07T00:28:20.516Z,7.81
2019-02-07T00:29:20.489Z,7.81
2019-02-07T00:30:20.464Z,7.70
2019-02-07T00:31:20.439Z,7.77
2019-02-07T00:32:20.458Z,7.75
2019-02-07T00:33:20.391Z,7.80
2019-02-07T00:34:20.366Z,7.81
2019-02-07T00:35:20.342Z,7.80
2019-02-07T00:36:20.313Z,7.78
2019-02-07T00:37:20.288Z,7.83
2019-02-07T00:38:20.262Z,7.75
2019-02-07T00:39:20.315Z,7.80
2019-02-07T00:40:20.214Z,7.75
2019-02-07T00:41:20.191Z,7.81
2019-02-07T00:42:20.161Z,7.80
2019-02-07T00:43:20.146Z,7.81
2019-02-07T00:44:20.117Z,7.75
2019-02-07T00:45:20.087Z,7.77
2019-02-07T00:46:20.059Z,7.80
2019-02-07T00:47:20.036Z,7.75
2019-02-07T00:48:20.011Z,7.69
2019-02-07T00:49:20.066Z,7.67
2019-02-07T00:50:20.062Z,7.78
2019-02-07T00:51:19.937Z,7.67
2019-02-07T00:52:19.909Z,7.77
2019-02-07T00:53:19.887Z,7.77
2019-02-07T00:54:19.940Z,7.75
2019-02-07T00:55:19.835Z,7.70
2019-02-07T00:56:19.813Z,7.67
2019-02-07T00:57:19.786Z,7.84
2019-02-07T00:58:19.830Z,7.69
2019-02-07T00:59:19.739Z,7.67
2019-02-07T01:00:19.712Z,7.70
2019-02-07T01:01:19.688Z,7.69
2019-02-07T01:02:19.711Z,7.72
2019-02-07T01:03:19.638Z,7.67
2019-02-07T01:04:19.614Z,7.64
2019-02-07T01:05:19.588Z,7.62
2019-02-07T01:06:19.565Z,7.74
2019-02-07T01:07:19.540Z,7.67
2019-02-07T01:08:19.512Z,7.69
2019-02-07T01:09:19.489Z,7.75
2019-02-07T01:10:19.462Z,7.75
2019-02-07T01:11:19.438Z,7.66
2019-02-07T01:12:19.413Z,7.72
2019-02-07T01:13:19.388Z,7.66
2019-02-07T01:14:19.362Z,7.64
2019-02-07T01:15:19.338Z,7.59
2019-02-07T01:16:19.313Z,7.70
2019-02-07T01:17:19.287Z,7.81
2019-02-07T01:18:19.264Z,7.74
2019-02-07T01:19:19.238Z,7.67
2019-02-07T01:20:19.218Z,7.72
2019-02-07T01:21:19.190Z,7.67
2019-02-07T01:22:19.162Z,7.80
2019-02-07T01:23:19.141Z,7.70
2019-02-07T01:24:19.114Z,7.70
2019-02-07T01:25:19.089Z,7.67
2019-02-07T01:26:19.062Z,7.75
2019-02-07T01:27:19.039Z,7.81
2019-02-07T01:28:19.014Z,7.62
2019-02-07T01:29:18.989Z,7.69
2019-02-07T01:30:18.967Z,7.58
2019-02-07T01:31:18.940Z,7.61
2019-02-07T01:32:18.915Z,7.66
2019-02-07T01:33:18.890Z,7.59
2019-02-07T01:34:18.989Z,7.70
2019-02-07T01:35:18.919Z,7.62
2019-02-07T01:36:18.814Z,7.77
2019-02-07T01:37:18.871Z,7.72
2019-02-07T01:38:18.761Z,7.66
2019-02-07T01:39:18.739Z,7.70
2019-02-07T01:40:18.714Z,7.74
2019-02-07T01:41:18.689Z,7.72
2019-02-07T01:42:18.665Z,7.61
2019-02-07T01:43:18.639Z,7.66
2019-02-07T01:44:18.614Z,7.66
2019-02-07T01:45:18.588Z,7.67
2019-02-07T01:46:18.563Z,7.62
2019-02-07T01:47:18.540Z,7.69
2019-02-07T01:48:18.520Z,7.67
2019-02-07T01:49:18.488Z,7.69
2019-02-07T01:50:18.464Z,7.59
2019-02-07T01:51:18.437Z,7.64
2019-02-07T01:52:18.412Z,7.62
2019-02-07T01:53:18.388Z,7.58
2019-02-07T01:54:18.365Z,7.62
2019-02-07T01:55:18.338Z,7.56
2019-02-07T01:56:18.316Z,7.62
2019-02-07T01:57:18.289Z,7.48
2019-02-07T01:58:18.314Z,7.55
2019-02-07T01:59:18.240Z,7.51
2019-02-07T02:00:18.213Z,7.55
2019-02-07T02:01:18.189Z,7.41
2019-02-07T02:02:18.167Z,7.55
2019-02-07T02:03:18.139Z,7.51
2019-02-07T02:04:18.113Z,7.43
2019-02-07T02:05:18.088Z,7.43
2019-02-07T02:06:18.062Z,7.39
2019-02-07T02:07:18.038Z,7.44
2019-02-07T02:08:18.012Z,7.41
2019-02-07T02:09:17.985Z,7.36
2019-02-07T02:10:17.961Z,7.39
2019-02-07T02:11:17.937Z,7.33
2019-02-07T02:12:17.911Z,7.39
2019-02-07T02:13:17.885Z,7.29
2019-02-07T02:14:17.860Z,7.25
2019-02-07T02:15:24.593Z,7.18
2019-02-07T02:16:17.812Z,7.22
2019-02-07T02:17:17.785Z,7.22
2019-02-07T02:18:17.761Z,7.22
2019-02-07T02:19:17.734Z,7.21
2019-02-07T02:20:17.711Z,7.18
2019-02-07T02:21:17.685Z,7.19
2019-02-07T02:22:17.659Z,7.08
2019-02-07T02:23:17.636Z,7.10
2019-02-07T02:24:17.614Z,7.08
2019-02-07T02:25:17.582Z,7.11
2019-02-07T02:26:17.582Z,7.05
2019-02-07T02:27:17.534Z,7.11
2019-02-07T02:28:17.507Z,7.07
2019-02-07T02:29:17.482Z,7.08
2019-02-07T02:30:17.458Z,7.03
2019-02-07T02:31:17.431Z,7.11
2019-02-07T02:32:17.408Z,7.11
2019-02-07T02:33:17.380Z,7.11
2019-02-07T02:34:17.357Z,7.07
2019-02-07T02:35:17.330Z,7.01
2019-02-07T02:36:17.306Z,7.01
2019-02-07T02:37:17.282Z,7.03
2019-02-07T02:38:17.254Z,7.01
2019-02-07T02:39:17.232Z,7.04
2019-02-07T02:40:17.207Z,7.04
2019-02-07T02:41:17.179Z,6.90
2019-02-07T02:42:17.154Z,6.95
2019-02-07T02:43:17.153Z,6.96
2019-02-07T02:44:17.104Z,6.95
2019-02-07T02:45:17.076Z,6.95
2019-02-07T02:46:17.052Z,6.83
2019-02-07T02:47:17.027Z,6.82
2019-02-07T02:48:17.002Z,6.80
2019-02-07T02:49:16.981Z,6.86
2019-02-07T02:50:16.951Z,6.80
2019-02-07T02:51:16.929Z,6.77
2019-02-07T02:52:16.899Z,6.85
2019-02-07T02:53:16.876Z,6.82
2019-02-07T02:54:16.849Z,6.82
2019-02-07T02:55:16.826Z,6.80
2019-02-07T02:56:16.799Z,6.75
2019-02-07T02:57:16.773Z,6.89
2019-02-07T02:58:16.746Z,6.75
2019-02-07T02:59:16.723Z,6.75
2019-02-07T03:00:16.696Z,6.82
2019-02-07T03:01:16.668Z,6.80
2019-02-07T03:02:16.646Z,6.72
2019-02-07T03:03:16.621Z,6.72
2019-02-07T03:04:16.599Z,6.64
2019-02-07T03:05:16.566Z,6.62
2019-02-07T03:06:16.548Z,6.64
2019-02-07T03:07:16.517Z,6.65
2019-02-07T03:08:16.494Z,6.68
2019-02-07T03:09:16.469Z,6.68
2019-02-07T03:10:16.440Z,6.71
2019-02-07T03:11:16.416Z,6.62
2019-02-07T03:12:16.389Z,6.68
2019-02-07T03:13:16.363Z,6.70
2019-02-07T03:14:16.337Z,6.65
2019-02-07T03:15:16.426Z,6.54
2019-02-07T03:16:16.298Z,6.62
2019-02-07T03:17:16.266Z,6.62
2019-02-07T03:18:16.234Z,6.52
2019-02-07T03:19:16.216Z,6.47
2019-02-07T03:20:16.184Z,6.54
2019-02-07T03:21:16.157Z,6.46
2019-02-07T03:22:16.134Z,6.49
2019-02-07T03:23:16.107Z,6.54
2019-02-07T03:24:16.081Z,6.47
2019-02-07T03:25:16.053Z,6.53
2019-02-07T03:26:16.029Z,6.53
2019-02-07T03:27:16.007Z,6.54
2019-02-07T03:28:15.979Z,6.54
2019-02-07T03:29:15.961Z,6.54
2019-02-07T03:30:15.929Z,6.59
2019-02-07T03:31:15.902Z,6.53
2019-02-07T03:32:15.876Z,6.50
2019-02-07T03:33:15.849Z,6.49
2019-02-07T03:34:15.822Z,6.52
2019-02-07T03:35:15.795Z,6.50
2019-02-07T03:36:15.769Z,6.44
2019-02-07T03:37:15.743Z,6.53
2019-02-07T03:38:15.719Z,6.38
2019-02-07T03:39:15.693Z,6.50
2019-02-07T03:40:15.665Z,6.36
2019-02-07T03:41:15.641Z,6.50
2019-02-07T03:42:15.614Z,6.47
2019-02-07T03:43:15.587Z,6.46
2019-02-07T03:44:15.587Z,6.52
2019-02-07T03:45:15.550Z,6.50
2019-02-07T03:46:15.508Z,6.49
2019-02-07T03:47:15.482Z,6.47
2019-02-07T03:48:15.460Z,6.36
2019-02-07T03:49:15.430Z,6.34
2019-02-07T03:50:15.407Z,6.35
2019-02-07T03:51:15.381Z,6.43
2019-02-07T03:52:15.354Z,6.41
2019-02-07T03:53:15.326Z,6.43
2019-02-07T03:54:15.302Z,6.39
2019-02-07T03:55:15.275Z,6.49
2019-02-07T03:56:15.249Z,6.52
2019-02-07T03:57:15.223Z,6.47
2019-02-07T03:58:15.196Z,6.36
2019-02-07T03:59:15.169Z,6.43
2019-02-07T04:00:15.143Z,6.41
2019-02-07T04:01:15.117Z,6.38
2019-02-07T04:02:15.092Z,6.39
2019-02-07T04:03:15.065Z,6.39
2019-02-07T04:04:15.039Z,6.44
2019-02-07T04:05:15.013Z,6.43
2019-02-07T04:06:14.990Z,6.38
2019-02-07T04:07:14.961Z,6.36
2019-02-07T04:08:14.934Z,6.35
2019-02-07T04:09:14.907Z,6.36
2019-02-07T04:10:14.882Z,6.36
2019-02-07T04:11:14.857Z,6.41
2019-02-07T04:12:14.828Z,6.44
2019-02-07T04:13:14.806Z,6.43
2019-02-07T04:14:14.777Z,6.41
2019-02-07T04:15:14.752Z,6.43
2019-02-07T04:16:15.696Z,6.46
2019-02-07T04:17:14.699Z,6.38
2019-02-07T04:18:14.671Z,6.34
2019-02-07T04:19:14.646Z,6.46
2019-02-07T04:20:14.617Z,6.41
2019-02-07T04:21:14.592Z,6.44
2019-02-07T04:22:14.566Z,6.43
2019-02-07T04:23:14.540Z,6.49
2019-02-07T04:24:17.998Z,6.46
2019-02-07T04:25:14.487Z,6.39
2019-02-07T04:26:14.459Z,6.44
2019-02-07T04:27:14.436Z,6.41
2019-02-07T04:28:14.407Z,6.47
2019-02-07T04:29:14.382Z,6.46
2019-02-07T04:30:14.355Z,6.50
2019-02-07T04:31:14.333Z,6.52
2019-02-07T04:32:14.302Z,6.39
2019-02-07T04:33:16.578Z,6.52
2019-02-07T04:34:14.251Z,6.41
2019-02-07T04:35:14.226Z,6.44
2019-02-07T04:36:14.197Z,6.36
2019-02-07T04:37:14.170Z,6.43
2019-02-07T04:38:14.145Z,6.39
2019-02-07T04:39:14.124Z,6.49
2019-02-07T04:40:14.126Z,6.34
2019-02-07T04:41:14.069Z,6.39
2019-02-07T04:42:14.039Z,6.38
2019-02-07T04:43:14.013Z,6.39
2019-02-07T04:44:13.988Z,6.35
2019-02-07T04:45:13.961Z,6.38
2019-02-07T04:46:13.935Z,6.43
2019-02-07T04:47:13.909Z,6.43
2019-02-07T04:48:13.881Z,6.34
2019-02-07T04:49:13.855Z,6.47
2019-02-07T04:50:13.829Z,6.49
2019-02-07T04:51:13.804Z,6.44
2019-02-07T04:52:13.780Z,6.52
2019-02-07T04:53:13.751Z,6.47
2019-02-07T04:54:13.730Z,6.49
2019-02-07T04:55:13.700Z,6.47
2019-02-07T04:56:13.672Z,6.49
2019-02-07T04:57:13.643Z,6.50
2019-02-07T04:58:13.618Z,6.44
2019-02-07T04:59:13.596Z,6.50
2019-02-07T05:00:13.568Z,6.56
2019-02-07T05:01:13.544Z,6.47
2019-02-07T05:02:13.514Z,6.54
2019-02-07T05:03:13.493Z,6.44
2019-02-07T05:04:13.460Z,6.60
2019-02-07T05:05:13.463Z,6.56
2019-02-07T05:06:13.409Z,6.50
2019-02-07T05:07:13.383Z,6.54
2019-02-07T05:08:13.360Z,6.60
2019-02-07T05:09:13.463Z,6.56
2019-02-07T05:10:13.300Z,6.53
2019-02-07T05:11:13.278Z,6.59
2019-02-07T05:12:13.250Z,6.62
2019-02-07T05:13:13.265Z,6.59
2019-02-07T05:14:13.200Z,6.60
2019-02-07T05:15:13.172Z,6.57
2019-02-07T05:16:13.144Z,6.60
2019-02-07T05:17:13.117Z,6.62
2019-02-07T05:18:13.090Z,6.68
2019-02-07T05:19:13.065Z,6.64
2019-02-07T05:20:13.038Z,6.64
2019-02-07T05:21:13.011Z,6.67
2019-02-07T05:22:12.986Z,6.72
2019-02-07T05:23:12.959Z,6.64
2019-02-07T05:24:12.938Z,6.67
2019-02-07T05:25:12.908Z,6.68
2019-02-07T05:26:12.880Z,6.68
2019-02-07T05:27:12.855Z,6.65
2019-02-07T05:28:12.827Z,6.68
2019-02-07T05:29:12.800Z,6.74
2019-02-07T05:30:12.776Z,6.67
2019-02-07T05:31:12.760Z,6.60
2019-02-07T05:32:12.722Z,6.65
2019-02-07T05:33:12.695Z,6.67
2019-02-07T05:34:12.678Z,6.65
2019-02-07T05:35:12.660Z,6.65
2019-02-07T05:36:12.617Z,6.65
2019-02-07T05:37:12.590Z,6.65
2019-02-07T05:38:12.565Z,6.70
2019-02-07T05:39:12.536Z,6.65
2019-02-07T05:40:12.526Z,6.77
2019-02-07T05:41:12.484Z,6.68
2019-02-07T05:42:12.477Z,6.71
2019-02-07T05:43:14.353Z,6.72
2019-02-07T05:44:12.406Z,6.72
2019-02-07T05:45:12.380Z,6.72
2019-02-07T05:46:12.359Z,6.78
2019-02-07T05:47:12.572Z,6.82
2019-02-07T05:48:12.399Z,6.75
2019-02-07T05:49:12.274Z,6.78
2019-02-07T05:50:12.248Z,6.86
2019-02-07T05:51:12.226Z,6.77
2019-02-07T05:52:12.195Z,6.86
2019-02-07T05:53:12.170Z,6.82
2019-02-07T05:54:12.166Z,6.80
2019-02-07T05:55:12.125Z,6.85
2019-02-07T05:56:12.094Z,6.80
2019-02-07T05:57:12.068Z,6.83
2019-02-07T05:58:12.039Z,6.83
2019-02-07T05:59:12.015Z,6.85
2019-02-07T06:00:11.986Z,6.97
2019-02-07T06:01:11.959Z,6.90
2019-02-07T06:02:11.935Z,6.95
2019-02-07T06:03:11.908Z,6.92
2019-02-07T06:04:11.893Z,6.97
2019-02-07T06:05:11.855Z,7.03
2019-02-07T06:06:11.839Z,7.05
2019-02-07T06:07:11.836Z,7.07
2019-02-07T06:08:11.807Z,7.14
2019-02-07T06:09:11.751Z,7.13
2019-02-07T06:10:11.732Z,7.11
2019-02-07T06:11:11.698Z,7.14
2019-02-07T06:12:11.677Z,7.11
2019-02-07T06:13:11.652Z,7.11
2019-02-07T06:14:11.621Z,7.14
2019-02-07T06:15:11.593Z,7.23
2019-02-07T06:16:11.573Z,7.15
2019-02-07T06:17:11.548Z,7.21
2019-02-07T06:18:11.514Z,7.26
2019-02-07T06:19:11.487Z,7.29
2019-02-07T06:20:11.461Z,7.28
2019-02-07T06:21:11.438Z,7.28
2019-02-07T06:22:11.408Z,7.26
2019-02-07T06:23:11.383Z,7.26
2019-02-07T06:24:11.357Z,7.25
2019-02-07T06:25:11.332Z,7.26
2019-02-07T06:26:11.305Z,7.29
2019-02-07T06:27:11.277Z,7.21
2019-02-07T06:28:11.255Z,7.29
2019-02-07T06:29:11.224Z,7.26
2019-02-07T06:30:11.198Z,7.25
2019-02-07T06:31:11.172Z,7.29
2019-02-07T06:32:11.147Z,7.25
2019-02-07T06:33:11.123Z,7.33
2019-02-07T06:34:11.094Z,7.26
2019-02-07T06:35:11.067Z,7.32
2019-02-07T06:36:11.043Z,7.33
2019-02-07T06:37:11.043Z,7.28
2019-02-07T06:38:10.990Z,7.39
2019-02-07T06:39:10.964Z,7.40
2019-02-07T06:40:10.937Z,7.40
2019-02-07T06:41:10.920Z,7.47
2019-02-07T06:42:10.887Z,7.46
2019-02-07T06:43:10.881Z,7.53
2019-02-07T06:44:10.835Z,7.46
2019-02-07T06:45:10.812Z,7.50
2019-02-07T06:46:10.782Z,7.53
2019-02-07T06:47:13.573Z,7.47
2019-02-07T06:48:10.728Z,7.48
2019-02-07T06:49:10.710Z,7.47
2019-02-07T06:50:10.678Z,7.61
2019-02-07T06:51:10.653Z,7.56
2019-02-07T06:52:10.629Z,7.55
2019-02-07T06:53:11.314Z,7.62
2019-02-07T06:54:10.573Z,7.64
2019-02-07T06:55:10.552Z,7.66
2019-02-07T06:56:10.522Z,7.62
2019-02-07T06:57:10.495Z,7.66
2019-02-07T06:58:10.469Z,7.62
2019-02-07T06:59:10.444Z,7.64
2019-02-07T07:00:10.418Z,7.62
2019-02-07T07:01:10.391Z,7.56
2019-02-07T07:02:10.366Z,7.58
2019-02-07T07:03:10.340Z,7.70
2019-02-07T07:04:10.316Z,7.66
2019-02-07T07:05:10.288Z,7.72
2019-02-07T07:06:10.262Z,7.67
2019-02-07T07:07:10.237Z,7.62
2019-02-07T07:08:10.228Z,7.64
2019-02-07T07:09:10.184Z,7.72
2019-02-07T07:10:10.158Z,7.72
2019-02-07T07:11:10.133Z,7.74
2019-02-07T07:12:10.108Z,7.66
2019-02-07T07:13:10.081Z,7.74
2019-02-07T07:14:10.053Z,7.74
2019-02-07T07:15:10.028Z,7.67
2019-02-07T07:16:10.003Z,7.74
2019-02-07T07:17:09.984Z,7.67
2019-02-07T07:18:09.949Z,7.75
2019-02-07T07:19:09.923Z,7.66
2019-02-07T07:20:09.900Z,7.70
2019-02-07T07:21:09.872Z,7.66
2019-02-07T07:22:09.850Z,7.70
2019-02-07T07:23:09.819Z,7.67
2019-02-07T07:24:09.795Z,7.69
2019-02-07T07:25:09.767Z,7.72
2019-02-07T07:26:09.747Z,7.70
2019-02-07T07:27:09.720Z,7.69
2019-02-07T07:28:09.690Z,7.74
2019-02-07T07:29:09.663Z,7.77
2019-02-07T07:30:09.639Z,7.80
2019-02-07T07:31:09.613Z,7.80
2019-02-07T07:32:09.585Z,7.77
2019-02-07T07:33:09.561Z,7.84
2019-02-07T07:34:09.539Z,7.77
2019-02-07T07:35:09.508Z,7.77
2019-02-07T07:36:09.483Z,7.72
2019-02-07T07:37:09.460Z,7.75
2019-02-07T07:38:09.430Z,7.75
2019-02-07T07:39:09.406Z,7.77
2019-02-07T07:40:09.377Z,7.78
2019-02-07T07:41:09.353Z,7.66
2019-02-07T07:42:09.332Z,7.69
2019-02-07T07:43:09.300Z,7.72
2019-02-07T07:44:09.277Z,7.74
2019-02-07T07:45:09.247Z,7.67
2019-02-07T07:46:09.248Z,7.70
2019-02-07T07:47:09.197Z,7.77
2019-02-07T07:48:09.189Z,7.70
2019-02-07T07:49:10.596Z,7.77
2019-02-07T07:50:09.119Z,7.77
2019-02-07T07:51:09.095Z,7.66
2019-02-07T07:52:09.069Z,7.72
2019-02-07T07:53:09.038Z,7.77
2019-02-07T07:54:09.013Z,7.75
2019-02-07T07:55:08.986Z,7.70
2019-02-07T07:56:08.964Z,7.77
2019-02-07T07:57:08.938Z,7.72
2019-02-07T07:58:08.908Z,7.62
2019-02-07T07:59:08.882Z,7.61
2019-02-07T08:00:08.857Z,7.64
2019-02-07T08:01:08.831Z,7.56
2019-02-07T08:02:08.806Z,7.67
2019-02-07T08:03:08.780Z,7.62
2019-02-07T08:04:08.753Z,7.55
2019-02-07T08:05:08.726Z,7.56
2019-02-07T08:06:08.702Z,7.58
2019-02-07T08:07:08.678Z,7.48
2019-02-07T08:08:08.650Z,7.47
2019-02-07T08:09:08.622Z,7.44
2019-02-07T08:10:08.597Z,7.59
2019-02-07T08:11:08.573Z,7.48
2019-02-07T08:12:08.545Z,7.48
2019-02-07T08:13:08.517Z,7.50
2019-02-07T08:14:08.493Z,7.51
2019-02-07T08:15:08.466Z,7.47
2019-02-07T08:16:08.442Z,7.50
2019-02-07T08:17:08.419Z,7.48
2019-02-07T08:18:08.388Z,7.58
2019-02-07T08:19:08.363Z,7.61
2019-02-07T08:20:08.347Z,7.56
2019-02-07T08:21:08.309Z,7.56
2019-02-07T08:22:08.282Z,7.59
2019-02-07T08:23:08.257Z,7.61
2019-02-07T08:24:08.231Z,7.59
2019-02-07T08:25:08.207Z,7.59
2019-02-07T08:26:08.180Z,7.58
2019-02-07T08:27:08.154Z,7.62
2019-02-07T08:28:08.129Z,7.58
2019-02-07T08:29:08.100Z,7.59
2019-02-07T08:30:08.080Z,7.62
2019-02-07T08:31:08.047Z,7.61
2019-02-07T08:32:08.022Z,7.58
2019-02-07T08:33:07.996Z,7.69
2019-02-07T08:34:07.970Z,7.62
2019-02-07T08:35:07.946Z,7.67
2019-02-07T08:36:07.917Z,7.69
2019-02-07T08:37:07.897Z,7.66
2019-02-07T08:38:07.866Z,7.62
2019-02-07T08:39:07.841Z,7.70
2019-02-07T08:40:07.815Z,7.74
2019-02-07T08:41:07.789Z,7.74
2019-02-07T08:42:07.766Z,7.75
2019-02-07T08:43:07.735Z,7.77
2019-02-07T08:44:13.168Z,7.77
2019-02-07T08:45:07.723Z,7.78
2019-02-07T08:46:07.664Z,7.84
2019-02-07T08:47:07.676Z,7.80
2019-02-07T08:48:07.617Z,7.83
2019-02-07T08:49:07.579Z,7.81
2019-02-07T08:50:07.552Z,7.75
2019-02-07T08:51:07.530Z,7.81
2019-02-07T08:52:07.500Z,7.83
2019-02-07T08:53:07.474Z,7.74
2019-02-07T08:54:07.447Z,7.81
2019-02-07T08:55:07.426Z,7.77
2019-02-07T08:56:07.397Z,7.81
2019-02-07T08:57:07.371Z,7.78
2019-02-07T08:58:07.345Z,7.77
2019-02-07T08:59:07.317Z,7.84
2019-02-07T09:00:07.293Z,7.74
2019-02-07T09:01:07.267Z,7.80
2019-02-07T09:02:07.241Z,7.75
2019-02-07T09:03:07.213Z,7.80
2019-02-07T09:04:07.187Z,7.81
2019-02-07T09:05:07.161Z,7.77
2019-02-07T09:06:07.137Z,7.78
2019-02-07T09:07:07.110Z,7.81
2019-02-07T09:08:07.084Z,7.77
2019-02-07T09:09:07.058Z,7.74
2019-02-07T09:10:07.033Z,7.80
2019-02-07T09:11:07.010Z,7.81
2019-02-07T09:12:06.980Z,7.75
2019-02-07T09:13:06.952Z,7.81
2019-02-07T09:14:06.930Z,7.90
2019-02-07T09:15:06.904Z,7.84
2019-02-07T09:16:06.879Z,7.88
2019-02-07T09:17:06.849Z,7.91
2019-02-07T09:18:11.388Z,7.98
2019-02-07T09:19:06.801Z,7.95
2019-02-07T09:20:06.772Z,7.91
2019-02-07T09:21:06.745Z,7.93
2019-02-07T09:22:06.723Z,7.98
2019-02-07T09:23:06.695Z,8.05
2019-02-07T09:24:06.669Z,8.01
2019-02-07T09:25:06.643Z,8.01
2019-02-07T09:26:06.616Z,8.05
2019-02-07T09:27:06.589Z,8.05
2019-02-07T09:28:06.566Z,8.03
2019-02-07T09:29:06.539Z,8.06
2019-02-07T09:30:06.513Z,8.13
2019-02-07T09:31:06.485Z,8.09
2019-02-07T09:32:06.465Z,8.13
2019-02-07T09:33:06.436Z,8.20
2019-02-07T09:34:06.412Z,8.17
2019-02-07T09:35:06.385Z,8.31
2019-02-07T09:36:06.359Z,8.34
2019-02-07T09:37:06.333Z,8.39
2019-02-07T09:38:06.307Z,8.44
2019-02-07T09:39:06.285Z,8.41
2019-02-07T09:40:06.325Z,8.46
2019-02-07T09:41:06.233Z,8.41
2019-02-07T09:42:06.327Z,8.50
2019-02-07T09:43:06.179Z,8.41
2019-02-07T09:44:06.313Z,8.52
2019-02-07T09:45:06.126Z,8.50
2019-02-07T09:46:06.101Z,8.49
2019-02-07T09:47:06.075Z,8.52
2019-02-07T09:48:06.051Z,8.56
2019-02-07T09:49:08.858Z,8.61
2019-02-07T09:50:06.019Z,8.61
2019-02-07T09:51:06.130Z,8.59
2019-02-07T09:52:05.945Z,8.63
2019-02-07T09:53:05.921Z,8.59
2019-02-07T09:54:05.896Z,8.68
2019-02-07T09:55:05.871Z,8.71
2019-02-07T09:56:05.849Z,8.77
2019-02-07T09:57:05.818Z,8.79
2019-02-07T09:58:05.792Z,8.87
2019-02-07T09:59:05.770Z,8.79
2019-02-07T10:00:05.745Z,8.82
2019-02-07T10:01:05.721Z,8.81
2019-02-07T10:02:05.697Z,8.78
2019-02-07T10:03:05.675Z,8.90
2019-02-07T10:04:05.643Z,8.92
2019-02-07T10:05:05.629Z,8.92
2019-02-07T10:06:05.592Z,8.99
2019-02-07T10:07:05.567Z,9.02
2019-02-07T10:08:05.544Z,8.95
2019-02-07T10:09:05.521Z,9.00
2019-02-07T10:10:05.490Z,9.00
2019-02-07T10:11:05.466Z,9.02
2019-02-07T10:12:05.443Z,9.12
2019-02-07T10:13:05.416Z,9.13
2019-02-07T10:14:05.390Z,9.13
2019-02-07T10:15:05.371Z,9.16
2019-02-07T10:16:05.340Z,9.11
2019-02-07T10:17:05.352Z,9.11
2019-02-07T10:18:05.312Z,9.08
2019-02-07T10:19:05.265Z,9.11
2019-02-07T10:20:05.241Z,9.18
2019-02-07T10:21:05.213Z,9.22
2019-02-07T10:22:05.189Z,9.29
2019-02-07T10:23:05.166Z,9.30
2019-02-07T10:24:05.157Z,9.39
2019-02-07T10:25:05.113Z,9.49
2019-02-07T10:26:05.136Z,9.52
2019-02-07T10:27:05.550Z,9.56
2019-02-07T10:28:05.042Z,9.62
2019-02-07T10:29:05.022Z,9.64
2019-02-07T10:30:04.991Z,9.67
2019-02-07T10:31:04.964Z,9.70
2019-02-07T10:32:04.939Z,9.62
2019-02-07T10:33:04.920Z,9.69
2019-02-07T10:34:04.891Z,9.67
2019-02-07T10:35:04.863Z,9.63
2019-02-07T10:36:04.839Z,9.58
2019-02-07T10:37:04.812Z,9.58
2019-02-07T10:38:04.793Z,9.62
2019-02-07T10:39:04.764Z,9.52
2019-02-07T10:40:04.739Z,9.52
2019-02-07T10:41:04.713Z,9.58
2019-02-07T10:42:04.690Z,9.52
2019-02-07T10:43:04.663Z,9.45
2019-02-07T10:44:04.639Z,9.54
2019-02-07T10:45:04.615Z,9.51
2019-02-07T10:46:04.590Z,9.52
2019-02-07T10:47:04.564Z,9.52
2019-02-07T10:48:04.540Z,9.49
2019-02-07T10:49:04.518Z,9.56
2019-02-07T10:50:04.491Z,9.55
2019-02-07T10:51:04.467Z,9.55
2019-02-07T10:52:04.442Z,9.52
2019-02-07T10:53:04.417Z,9.64
2019-02-07T10:54:04.393Z,9.69
2019-02-07T10:55:04.368Z,9.72
2019-02-07T10:56:04.346Z,9.80
2019-02-07T10:57:04.322Z,9.88
2019-02-07T10:58:04.294Z,9.90
2019-02-07T10:59:04.269Z,10.00
2019-02-07T11:00:04.284Z,10.05
2019-02-07T11:01:04.219Z,10.17
2019-02-07T11:02:04.194Z,10.18
2019-02-07T11:03:04.171Z,10.23
2019-02-07T11:04:04.146Z,10.17
2019-02-07T11:05:04.123Z,10.17
2019-02-07T11:06:04.099Z,10.18
2019-02-07T11:07:04.073Z,10.20
2019-02-07T11:08:04.051Z,10.20
2019-02-07T11:09:04.028Z,10.18
2019-02-07T11:10:04.001Z,10.23
2019-02-07T11:11:03.979Z,10.17
2019-02-07T11:12:03.963Z,10.24
2019-02-07T11:13:03.928Z,10.24
2019-02-07T11:14:03.903Z,10.33
2019-02-07T11:15:03.877Z,10.38
2019-02-07T11:16:03.854Z,10.28
2019-02-07T11:17:03.994Z,10.33
2019-02-07T11:18:03.804Z,10.34
2019-02-07T11:19:03.781Z,10.34
2019-02-07T11:20:03.758Z,10.33
2019-02-07T11:21:03.732Z,10.31
2019-02-07T11:22:03.708Z,10.24
2019-02-07T11:23:03.684Z,10.27
2019-02-07T11:24:03.659Z,10.20
2019-02-07T11:25:03.686Z,10.23
2019-02-07T11:26:03.615Z,10.34
2019-02-07T11:27:03.589Z,10.30
2019-02-07T11:28:10.117Z,10.39
2019-02-07T11:29:03.540Z,10.43
2019-02-07T11:30:03.513Z,10.48
2019-02-07T11:31:03.499Z,10.42
2019-02-07T11:32:03.468Z,10.46
2019-02-07T11:33:03.442Z,10.55
2019-02-07T11:34:03.426Z,10.43
2019-02-07T11:35:03.396Z,10.57
2019-02-07T11:36:03.372Z,10.51
2019-02-07T11:37:03.346Z,10.51
2019-02-07T11:38:03.334Z,10.64
2019-02-07T11:39:03.301Z,10.57
2019-02-07T11:40:03.280Z,10.53
2019-02-07T11:41:03.253Z,10.51
2019-02-07T11:42:03.228Z,10.53
2019-02-07T11:43:03.204Z,10.36
2019-02-07T11:44:03.233Z,10.34
2019-02-07T11:45:03.158Z,10.43
2019-02-07T11:46:03.140Z,10.36
2019-02-07T11:47:05.515Z,10.39
2019-02-07T11:48:03.087Z,10.34
2019-02-07T11:49:06.808Z,10.38
2019-02-07T11:50:03.040Z,10.41
2019-02-07T11:51:03.015Z,10.36
2019-02-07T11:52:02.992Z,10.33
2019-02-07T11:53:02.966Z,10.39
2019-02-07T11:54:02.946Z,10.33
2019-02-07T11:55:02.921Z,10.39
2019-02-07T11:56:02.898Z,10.25
2019-02-07T11:57:02.874Z,10.27
2019-02-07T11:58:02.856Z,10.38
2019-02-07T11:59:02.824Z,10.36
2019-02-07T12:00:02.803Z,10.34
2019-02-07T12:01:02.777Z,10.33
2019-02-07T12:02:09.305Z,10.28
2019-02-07T12:03:02.730Z,10.41
2019-02-07T12:04:02.705Z,10.43
2019-02-07T12:05:02.682Z,10.46
2019-02-07T12:06:02.656Z,10.33
2019-02-07T12:07:02.638Z,10.45
2019-02-07T12:08:02.611Z,10.39
2019-02-07T12:09:02.588Z,10.45
2019-02-07T12:10:02.560Z,10.43
2019-02-07T12:11:02.537Z,10.51
2019-02-07T12:12:02.515Z,10.45
2019-02-07T12:13:02.491Z,10.34
2019-02-07T12:14:02.467Z,10.46
2019-02-07T12:15:02.443Z,10.53
2019-02-07T12:16:02.423Z,10.55
2019-02-07T12:17:02.399Z,10.42
2019-02-07T12:18:02.371Z,10.42
2019-02-07T12:19:02.348Z,10.30
2019-02-07T12:20:02.324Z,10.42
2019-02-07T12:21:02.300Z,10.42
2019-02-07T12:22:02.278Z,10.41
2019-02-07T12:23:02.252Z,10.43
2019-02-07T12:24:02.239Z,10.41
2019-02-07T12:25:02.203Z,10.55
2019-02-07T12:26:02.182Z,10.46
2019-02-07T12:27:02.158Z,10.53
2019-02-07T12:28:02.150Z,10.53
2019-02-07T12:29:02.112Z,10.53
2019-02-07T12:30:02.088Z,10.55
2019-02-07T12:31:02.063Z,10.49
2019-02-07T12:32:02.040Z,10.57
2019-02-07T12:33:02.013Z,10.58
2019-02-07T12:34:01.992Z,10.67
2019-02-07T12:35:02.008Z,10.55
2019-02-07T12:36:01.947Z,10.65
2019-02-07T12:37:01.918Z,10.71
2019-02-07T12:38:01.897Z,10.68
2019-02-07T12:39:01.871Z,10.69
2019-02-07T12:40:01.849Z,10.57
2019-02-07T12:41:01.832Z,10.67
2019-02-07T12:42:01.800Z,10.69
2019-02-07T12:43:01.783Z,10.72
2019-02-07T12:44:01.756Z,10.76
2019-02-07T12:45:01.729Z,10.72
2019-02-07T12:46:01.707Z,10.80
2019-02-07T12:47:01.682Z,10.69
2019-02-07T12:48:01.661Z,10.69
2019-02-07T12:49:01.637Z,10.69
2019-02-07T12:50:01.612Z,10.75
2019-02-07T12:51:01.587Z,10.58
2019-02-07T12:52:01.566Z,10.62
2019-02-07T12:53:01.540Z,10.69
2019-02-07T12:54:01.517Z,10.89
2019-02-07T12:55:01.577Z,10.89
2019-02-07T12:56:01.476Z,10.89
2019-02-07T12:57:01.447Z,10.79
2019-02-07T12:58:01.424Z,10.77
2019-02-07T12:59:01.399Z,10.86
2019-02-07T13:00:01.380Z,10.79
2019-02-07T13:01:01.352Z,10.80
2019-02-07T13:02:01.329Z,10.92
2019-02-07T13:03:01.308Z,10.77
2019-02-07T13:04:01.283Z,10.68
2019-02-07T13:05:01.261Z,10.71
2019-02-07T13:06:01.234Z,10.64
2019-02-07T13:07:01.213Z,10.69
2019-02-07T13:08:01.187Z,10.64
2019-02-07T13:09:01.165Z,10.61
2019-02-07T13:10:01.144Z,10.62
2019-02-07T13:11:01.125Z,10.64
2019-02-07T13:12:01.094Z,10.67
2019-02-07T13:13:01.089Z,10.62